createdAt,value
2022-10-11T00:01:55.004Z,2.38
2022-10-11T00:04:23.111Z,1.40
2022-10-11T00:06:49.918Z,1.17
2022-10-11T00:09:16.880Z,1.60
2022-10-11T00:11:43.575Z,1.30
2022-10-11T00:14:10.351Z,1.30
2022-10-11T00:16:40.874Z,1.27
2022-10-11T00:19:07.776Z,1.15
2022-10-11T00:21:34.478Z,1.33
2022-10-11T00:24:01.285Z,1.70
2022-10-11T00:26:28.545Z,1.10
2022-10-11T00:28:55.845Z,1.27
2022-10-11T00:31:22.698Z,1.48
2022-10-11T00:33:49.440Z,1.38
2022-10-11T00:36:17.594Z,1.40
2022-10-11T00:38:44.848Z,1.20
2022-10-11T00:41:12.074Z,1.30
2022-10-11T00:43:38.885Z,1.13
2022-10-11T00:46:07.576Z,1.30
2022-10-11T00:48:34.552Z,1.20
2022-10-11T00:51:03.296Z,1.00
2022-10-11T00:53:30.543Z,1.25
2022-10-11T00:56:12.780Z,1.33
2022-10-11T00:58:39.567Z,1.15
2022-10-11T01:01:06.476Z,1.55
2022-10-11T01:03:33.202Z,1.20
2022-10-11T01:06:00.066Z,1.10
2022-10-11T01:08:26.927Z,1.00
2022-10-11T01:10:54.204Z,1.20
2022-10-11T01:14:05.672Z,1.20
2022-10-11T01:17:00.782Z,1.20
2022-10-11T01:19:46.244Z,1.10
2022-10-11T01:22:34.701Z,1.65
2022-10-11T01:25:16.033Z,1.25
2022-10-11T01:27:51.359Z,0.95
2022-10-11T01:30:31.946Z,1.15
2022-10-11T01:33:01.386Z,1.00
2022-10-11T01:35:28.099Z,0.90
2022-10-11T01:38:04.221Z,1.17
2022-10-11T01:40:34.097Z,1.20
2022-10-11T01:43:01.666Z,1.50
2022-10-11T01:45:28.334Z,1.00
2022-10-11T01:48:08.255Z,1.00
2022-10-11T01:50:36.210Z,1.17
2022-10-11T01:53:23.997Z,0.90
2022-10-11T01:56:01.793Z,1.33
2022-10-11T01:58:35.144Z,2.13
2022-10-11T02:01:24.971Z,1.50
2022-10-11T02:04:03.609Z,1.10
2022-10-11T02:06:39.927Z,1.20
2022-10-11T02:09:17.175Z,1.10
2022-10-11T02:11:43.999Z,1.38
2022-10-11T02:14:24.726Z,1.63
2022-10-11T02:16:56.551Z,1.20
2022-10-11T02:19:26.894Z,0.98
2022-10-11T02:21:55.724Z,1.13
2022-10-11T02:24:27.657Z,1.30
2022-10-11T02:26:55.286Z,1.23
2022-10-11T02:29:23.006Z,1.10
2022-10-11T02:31:50.258Z,1.00
2022-10-11T02:34:20.487Z,1.20
2022-10-11T02:37:01.352Z,1.10
2022-10-11T02:39:46.108Z,0.60
2022-10-11T02:42:21.110Z,0.80
2022-10-11T02:44:53.360Z,1.00
2022-10-11T02:47:20.144Z,1.35
2022-10-11T02:49:46.836Z,0.90
2022-10-11T02:52:14.415Z,1.08
2022-10-11T02:54:41.107Z,1.10
2022-10-11T02:57:07.811Z,1.10
2022-10-11T02:59:34.942Z,1.08
2022-10-11T03:02:01.755Z,1.20
2022-10-11T03:04:29.728Z,0.90
2022-10-11T03:06:56.787Z,1.08
2022-10-11T03:09:23.518Z,1.25
2022-10-11T03:11:50.258Z,0.93
2022-10-11T03:14:16.907Z,0.98
2022-10-11T03:16:43.719Z,0.98
2022-10-11T03:19:10.756Z,0.73
2022-10-11T03:21:37.450Z,1.35
2022-10-11T03:24:04.512Z,0.90
2022-10-11T03:26:31.256Z,0.82
2022-10-11T03:28:58.008Z,1.17
2022-10-11T03:31:24.766Z,1.15
2022-10-11T03:33:51.476Z,1.02
2022-10-11T03:36:18.434Z,1.10
2022-10-11T03:38:45.117Z,1.20
2022-10-11T03:41:11.941Z,0.90
2022-10-11T03:43:38.641Z,1.02
2022-10-11T03:46:05.737Z,0.90
2022-10-11T03:48:33.402Z,1.30
2022-10-11T03:51:00.305Z,1.00
2022-10-11T03:53:27.079Z,1.05
2022-10-11T03:55:54.978Z,1.25
2022-10-11T03:58:22.050Z,1.00
2022-10-11T04:00:48.978Z,1.10
2022-10-11T04:03:15.987Z,0.90
2022-10-11T04:05:42.723Z,1.10
2022-10-11T04:08:12.197Z,0.90
2022-10-11T04:10:40.092Z,0.95
2022-10-11T04:13:07.408Z,0.95
2022-10-11T04:15:34.098Z,1.33
2022-10-11T04:18:01.081Z,1.00
2022-10-11T04:20:27.984Z,1.00
2022-10-11T04:22:54.726Z,0.93
2022-10-11T04:25:21.493Z,0.88
2022-10-11T04:27:48.564Z,0.90
2022-10-11T04:30:17.392Z,0.90
2022-10-11T04:32:45.104Z,0.90
2022-10-11T04:35:12.546Z,0.95
2022-10-11T04:37:39.299Z,2.30
2022-10-11T04:40:07.269Z,0.68
2022-10-11T04:42:34.538Z,1.17
2022-10-11T04:45:01.274Z,0.80
2022-10-11T04:47:28.793Z,1.08
2022-10-11T04:49:56.976Z,1.15
2022-10-11T04:52:25.897Z,0.70
2022-10-11T04:54:52.742Z,1.00
2022-10-11T04:57:19.446Z,0.90
2022-10-11T04:59:49.993Z,0.90
2022-10-11T05:02:17.698Z,0.95
2022-10-11T05:04:45.015Z,1.02
2022-10-11T05:07:12.144Z,0.95
2022-10-11T05:09:38.848Z,0.93
2022-10-11T05:12:06.289Z,1.00
2022-10-11T05:14:32.968Z,1.15
2022-10-11T05:16:59.645Z,0.95
2022-10-11T05:19:26.376Z,1.00
2022-10-11T05:21:54.907Z,0.90
2022-10-11T05:24:22.125Z,1.00
2022-10-11T05:26:49.449Z,1.20
2022-10-11T05:29:16.220Z,1.20
2022-10-11T05:31:43.269Z,0.90
2022-10-11T05:34:09.996Z,0.88
2022-10-11T05:36:37.324Z,1.10
2022-10-11T05:39:06.818Z,1.52
2022-10-11T05:41:33.504Z,1.10
2022-10-11T05:44:00.211Z,1.00
2022-10-11T05:46:26.913Z,1.23
2022-10-11T05:48:53.691Z,0.85
2022-10-11T05:51:20.380Z,0.95
2022-10-11T05:53:47.280Z,1.00
2022-10-11T05:56:21.607Z,0.88
2022-10-11T05:58:48.540Z,0.90
2022-10-11T06:01:23.373Z,0.90
2022-10-11T06:03:50.520Z,1.20
2022-10-11T06:06:17.403Z,1.65
2022-10-11T06:08:44.497Z,1.10
2022-10-11T06:11:16.548Z,1.15
2022-10-11T06:13:43.641Z,1.20
2022-10-11T06:16:10.770Z,1.10
2022-10-11T06:18:37.570Z,1.02
2022-10-11T06:21:04.486Z,1.08
2022-10-11T06:23:31.187Z,0.88
2022-10-11T06:26:02.737Z,0.85
2022-10-11T06:28:30.101Z,0.75
2022-10-11T06:30:57.091Z,1.00
2022-10-11T06:33:24.050Z,0.90
2022-10-11T06:35:56.622Z,1.00
2022-10-11T06:38:23.277Z,1.10
2022-10-11T06:40:50.108Z,0.90
2022-10-11T06:43:16.815Z,1.00
2022-10-11T06:45:43.542Z,0.75
2022-10-11T06:48:10.905Z,0.80
2022-10-11T06:50:58.425Z,1.20
2022-10-11T06:53:25.158Z,0.85
2022-10-11T06:55:51.915Z,1.00
2022-10-11T06:58:18.687Z,1.27
2022-10-11T07:00:45.478Z,1.50
2022-10-11T07:03:12.350Z,1.40
2022-10-11T07:05:39.319Z,2.28
2022-10-11T07:08:06.176Z,3.00
2022-10-11T07:10:33.056Z,2.50
2022-10-11T07:12:59.918Z,2.80
2022-10-11T07:15:26.621Z,1.85
2022-10-11T07:17:53.293Z,1.55
2022-10-11T07:20:19.945Z,1.95
2022-10-11T07:22:46.731Z,1.50
2022-10-11T07:25:13.415Z,1.45
2022-10-11T07:27:40.573Z,1.42
2022-10-11T07:30:07.919Z,1.30
2022-10-11T07:32:34.609Z,1.10
2022-10-11T07:35:01.291Z,0.90
2022-10-11T07:37:28.096Z,0.95
2022-10-11T07:39:54.794Z,0.98
2022-10-11T07:42:22.463Z,1.27
2022-10-11T07:44:49.251Z,0.90
2022-10-11T07:47:16.036Z,0.70
2022-10-11T07:49:42.688Z,1.10
2022-10-11T07:52:09.829Z,0.73
2022-10-11T07:54:36.578Z,0.73
2022-10-11T07:57:03.276Z,0.70
2022-10-11T07:59:30.163Z,0.65
2022-10-11T08:01:57.299Z,0.85
2022-10-11T08:04:24.051Z,0.70
2022-10-11T08:06:53.484Z,0.80
2022-10-11T08:09:20.492Z,0.70
2022-10-11T08:11:47.216Z,0.63
2022-10-11T08:14:13.956Z,1.00
2022-10-11T08:16:40.895Z,0.73
2022-10-11T08:19:07.848Z,0.70
2022-10-11T08:21:35.054Z,1.00
2022-10-11T08:24:03.008Z,1.00
2022-10-11T08:26:29.976Z,1.10
2022-10-11T08:28:58.422Z,1.05
2022-10-11T08:31:25.130Z,0.90
2022-10-11T08:33:51.927Z,0.98
2022-10-11T08:36:18.732Z,1.05
2022-10-11T08:38:45.458Z,0.80
2022-10-11T08:41:31.562Z,0.73
2022-10-11T08:44:14.316Z,0.82
2022-10-11T08:46:41.569Z,0.90
2022-10-11T08:49:09.783Z,0.70
2022-10-11T08:51:47.443Z,1.10
2022-10-11T08:54:36.028Z,0.82
2022-10-11T08:57:06.452Z,0.90
2022-10-11T09:00:05.763Z,1.10
2022-10-11T09:03:07.521Z,0.95
2022-10-11T09:05:36.007Z,0.75
2022-10-11T09:08:29.845Z,0.80
2022-10-11T09:14:01.700Z,1.00
2022-10-11T09:16:55.802Z,0.80
2022-10-11T09:19:26.817Z,1.25
2022-10-11T09:22:00.006Z,1.42
2022-10-11T09:24:49.298Z,0.90
2022-10-11T09:27:50.392Z,1.40
2022-10-11T09:30:19.291Z,1.02
2022-10-11T09:32:58.847Z,1.30
2022-10-11T09:35:25.642Z,1.23
2022-10-11T09:37:54.354Z,1.00
2022-10-11T09:40:58.699Z,0.93
2022-10-11T09:43:25.344Z,1.10
2022-10-11T09:45:52.087Z,0.80
2022-10-11T09:48:23.302Z,1.00
2022-10-11T09:50:50.393Z,0.80
2022-10-11T09:53:17.179Z,0.93
2022-10-11T09:55:54.335Z,0.73
2022-10-11T09:58:27.075Z,0.98
2022-10-11T10:01:00.210Z,1.10
2022-10-11T10:03:33.271Z,1.05
2022-10-11T10:06:17.505Z,1.33
2022-10-11T10:08:47.013Z,0.70
2022-10-11T10:11:13.752Z,0.90
2022-10-11T10:13:44.587Z,0.88
2022-10-11T10:16:28.283Z,0.80
2022-10-11T10:19:16.762Z,0.95
2022-10-11T10:21:50.883Z,0.90
2022-10-11T10:24:20.163Z,0.80
2022-10-11T10:27:07.915Z,0.95
2022-10-11T10:29:35.894Z,0.77
2022-10-11T10:32:20.905Z,1.08
2022-10-11T10:35:16.767Z,0.88
2022-10-11T10:37:56.239Z,0.98
2022-10-11T10:40:34.047Z,0.80
2022-10-11T10:43:00.925Z,0.88
2022-10-11T10:45:31.165Z,0.70
2022-10-11T10:48:10.906Z,1.08
2022-10-11T10:51:22.941Z,1.10
2022-10-11T10:53:58.501Z,1.35
2022-10-11T10:56:33.360Z,0.90
2022-10-11T10:59:14.669Z,0.90
2022-10-11T11:01:56.722Z,0.90
2022-10-11T11:04:28.972Z,0.90
2022-10-11T11:07:43.879Z,1.38
2022-10-11T11:10:15.488Z,0.90
2022-10-11T11:12:58.097Z,0.95
2022-10-11T11:15:44.085Z,1.00
2022-10-11T11:18:22.880Z,0.77
2022-10-11T11:21:24.412Z,0.73
2022-10-11T11:23:57.430Z,0.90
2022-10-11T11:26:35.147Z,0.80
2022-10-11T11:29:14.250Z,0.98
2022-10-11T11:31:56.038Z,0.73
2022-10-11T11:34:25.555Z,0.60
2022-10-11T11:36:54.937Z,0.70
2022-10-11T11:39:26.846Z,0.88
2022-10-11T11:42:04.430Z,0.60
2022-10-11T11:44:32.787Z,0.70
2022-10-11T11:47:19.607Z,0.60
2022-10-11T11:50:19.144Z,0.73
2022-10-11T11:52:47.188Z,0.75
2022-10-11T11:55:44.990Z,1.05
2022-10-11T11:58:27.704Z,1.00
2022-10-11T12:01:17.633Z,0.63
2022-10-11T12:03:50.675Z,1.42
2022-10-11T12:08:57.797Z,1.02
2022-10-11T12:11:30.484Z,1.08
2022-10-11T12:14:00.271Z,1.25
2022-10-11T12:16:27.665Z,1.15
2022-10-11T12:19:00.575Z,1.00
2022-10-11T12:23:55.444Z,1.10
2022-10-11T12:26:28.231Z,1.35
2022-10-11T12:31:25.291Z,0.77
2022-10-11T12:34:09.912Z,0.68
2022-10-11T12:36:43.294Z,0.80
2022-10-11T12:39:19.484Z,0.90
2022-10-11T12:41:53.491Z,0.80
2022-10-11T12:44:27.458Z,0.80
2022-10-11T12:46:54.090Z,1.05
2022-10-11T12:49:51.047Z,0.70
2022-10-11T12:52:17.806Z,1.40
2022-10-11T12:55:09.149Z,0.90
2022-10-11T12:57:54.742Z,0.95
2022-10-11T13:00:23.755Z,0.90
2022-10-11T13:02:51.024Z,1.35
2022-10-11T13:05:44.984Z,0.90
2022-10-11T13:08:16.851Z,1.00
2022-10-11T13:10:44.906Z,0.98
2022-10-11T13:13:20.440Z,0.82
2022-10-11T13:15:47.194Z,0.77
2022-10-11T13:18:14.771Z,1.00
2022-10-11T13:20:42.537Z,1.00
2022-10-11T13:23:19.950Z,0.80
2022-10-11T13:25:46.888Z,0.80
2022-10-11T13:28:14.226Z,0.88
2022-10-11T13:30:43.761Z,1.10
2022-10-11T13:33:23.706Z,0.77
2022-10-11T13:35:50.665Z,1.05
2022-10-11T13:38:23.131Z,0.95
2022-10-11T13:43:20.568Z,0.85
2022-10-11T13:45:47.706Z,0.90
2022-10-11T13:48:15.118Z,0.82
2022-10-11T13:50:46.307Z,0.80
2022-10-11T13:53:13.058Z,0.70
2022-10-11T13:55:42.490Z,0.95
2022-10-11T13:58:21.589Z,1.05
2022-10-11T14:01:06.596Z,1.00
2022-10-11T14:03:43.020Z,1.13
2022-10-11T14:06:09.757Z,0.95
2022-10-11T14:08:42.215Z,0.80
2022-10-11T14:13:46.935Z,0.60
2022-10-11T14:16:20.436Z,0.70
2022-10-11T14:18:47.278Z,0.80
2022-10-11T14:21:20.326Z,0.90
2022-10-11T14:23:47.795Z,0.80
2022-10-11T14:26:18.522Z,0.50
2022-10-11T14:28:46.110Z,0.80
2022-10-11T14:31:13.302Z,0.60
2022-10-11T14:33:40.106Z,0.55
2022-10-11T14:36:07.335Z,0.80
2022-10-11T14:38:34.340Z,0.73
2022-10-11T14:41:00.985Z,0.90
2022-10-11T14:43:27.910Z,0.82
2022-10-11T14:45:55.066Z,0.60
2022-10-11T14:48:43.168Z,0.90
2022-10-11T14:51:09.760Z,0.70
2022-10-11T14:53:40.879Z,0.60
2022-10-11T14:56:08.669Z,0.68
2022-10-11T14:58:35.628Z,0.63
2022-10-11T15:01:02.458Z,0.45
2022-10-11T15:03:29.587Z,0.60
2022-10-11T15:05:56.373Z,0.50
2022-10-11T15:08:23.011Z,0.50
2022-10-11T15:10:49.970Z,0.68
2022-10-11T15:13:16.701Z,0.70
2022-10-11T15:15:43.448Z,0.73
2022-10-11T15:18:12.388Z,0.70
2022-10-11T15:20:42.176Z,0.88
2022-10-11T15:23:12.156Z,0.73
2022-10-11T15:25:39.522Z,0.77
2022-10-11T15:28:06.459Z,0.98
2022-10-11T15:30:38.534Z,0.77
2022-10-11T15:33:07.881Z,0.80
2022-10-11T15:35:34.610Z,0.70
2022-10-11T15:38:01.325Z,0.80
2022-10-11T15:40:31.939Z,0.70
2022-10-11T15:42:58.652Z,0.60
2022-10-11T15:45:25.752Z,0.68
2022-10-11T15:47:52.743Z,0.40
2022-10-11T15:50:34.130Z,0.40
2022-10-11T15:53:13.676Z,0.70
2022-10-11T15:55:43.424Z,0.40
2022-10-11T15:58:15.679Z,0.40
2022-10-11T16:00:43.551Z,0.55
2022-10-11T16:03:12.939Z,0.70
2022-10-11T16:05:39.907Z,0.50
2022-10-11T16:08:06.676Z,0.50
2022-10-11T16:10:33.489Z,0.70
2022-10-11T16:13:00.287Z,0.80
2022-10-11T16:15:26.964Z,0.60
2022-10-11T16:17:53.914Z,0.60
2022-10-11T16:20:22.444Z,0.47
2022-10-11T16:22:49.734Z,0.70
2022-10-11T16:25:17.080Z,0.47
2022-10-11T16:27:44.189Z,0.60
2022-10-11T16:30:14.823Z,0.65
2022-10-11T16:32:41.553Z,0.73
2022-10-11T16:35:08.938Z,0.80
2022-10-11T16:37:36.365Z,0.90
2022-10-11T16:40:03.754Z,0.85
2022-10-11T16:42:30.599Z,0.93
2022-10-11T16:44:57.277Z,1.10
2022-10-11T16:47:24.037Z,1.30
2022-10-11T16:49:50.853Z,1.42
2022-10-11T16:52:17.527Z,1.00
2022-10-11T16:54:46.956Z,1.33
2022-10-11T16:57:15.040Z,1.00
2022-10-11T16:59:41.838Z,1.20
2022-10-11T17:02:13.922Z,0.95
2022-10-11T17:04:40.643Z,0.90
2022-10-11T17:07:12.678Z,1.33
2022-10-11T17:09:43.895Z,1.13
2022-10-11T17:12:12.935Z,1.30
2022-10-11T17:14:40.362Z,1.63
2022-10-11T17:17:07.522Z,1.48
2022-10-11T17:19:34.264Z,1.60
2022-10-11T17:22:00.904Z,1.60
2022-10-11T17:24:27.750Z,1.50
2022-10-11T17:26:54.572Z,1.77
2022-10-11T17:29:21.972Z,1.30
2022-10-11T17:31:49.464Z,1.65
2022-10-11T17:34:16.667Z,2.17
2022-10-11T17:36:43.832Z,1.20
2022-10-11T17:39:15.311Z,1.70
2022-10-11T17:41:42.683Z,1.50
2022-10-11T17:44:09.875Z,1.25
2022-10-11T17:46:36.665Z,1.20
2022-10-11T17:49:05.913Z,1.48
2022-10-11T17:51:33.202Z,1.85
2022-10-11T17:53:59.991Z,1.52
2022-10-11T17:56:30.385Z,1.35
2022-10-11T17:58:58.316Z,1.40
2022-10-11T18:01:27.236Z,1.55
2022-10-11T18:03:56.633Z,1.10
2022-10-11T18:06:23.759Z,1.25
2022-10-11T18:08:50.537Z,1.30
2022-10-11T18:11:18.519Z,1.15
2022-10-11T18:13:47.621Z,1.52
2022-10-11T18:16:15.161Z,1.20
2022-10-11T18:18:42.425Z,1.35
2022-10-11T18:21:09.854Z,1.40
2022-10-11T18:23:38.159Z,1.45
2022-10-11T18:26:15.696Z,1.60
2022-10-11T18:28:42.797Z,1.42
2022-10-11T18:31:17.368Z,1.48
2022-10-11T18:33:45.921Z,0.90
2022-10-11T18:36:13.954Z,1.50
2022-10-11T18:38:43.951Z,1.58
2022-10-11T18:41:10.984Z,1.50
2022-10-11T18:43:37.980Z,1.42
2022-10-11T18:46:09.820Z,1.67
2022-10-11T18:48:36.547Z,1.50
2022-10-11T18:51:14.924Z,1.25
2022-10-11T18:53:41.782Z,1.10
2022-10-11T18:56:09.672Z,1.25
2022-10-11T18:58:37.243Z,1.02
2022-10-11T19:01:25.452Z,1.15
2022-10-11T19:03:53.734Z,0.90
2022-10-11T19:06:22.519Z,1.05
2022-10-11T19:09:00.458Z,1.10
2022-10-11T19:11:27.384Z,0.88
2022-10-11T19:14:06.348Z,1.13
2022-10-11T19:16:33.501Z,0.85
2022-10-11T19:19:00.434Z,1.17
2022-10-11T19:21:28.661Z,1.15
2022-10-11T19:23:55.654Z,1.50
2022-10-11T19:26:31.271Z,1.30
2022-10-11T19:29:00.264Z,1.27
2022-10-11T19:31:27.073Z,1.00
2022-10-11T19:33:53.856Z,1.00
2022-10-11T19:36:23.247Z,1.17
2022-10-11T19:38:50.977Z,1.10
2022-10-11T19:41:19.234Z,1.40
2022-10-11T19:43:46.310Z,1.67
2022-10-11T19:46:20.179Z,1.20
2022-10-11T19:48:50.392Z,1.30
2022-10-11T19:51:18.084Z,1.25
2022-10-11T19:53:45.022Z,1.55
2022-10-11T19:56:18.251Z,1.00
2022-10-11T19:58:45.569Z,0.98
2022-10-11T20:01:17.790Z,1.73
2022-10-11T20:03:46.757Z,1.40
2022-10-11T20:06:14.068Z,1.10
2022-10-11T20:08:40.741Z,1.20
2022-10-11T20:11:08.542Z,1.45
2022-10-11T20:13:36.008Z,1.20
2022-10-11T20:16:08.112Z,1.15
2022-10-11T20:18:35.051Z,1.08
2022-10-11T20:21:05.919Z,1.27
2022-10-11T20:23:33.003Z,1.13
2022-10-11T20:26:17.210Z,1.33
2022-10-11T20:28:44.080Z,1.10
2022-10-11T20:31:14.759Z,1.50
2022-10-11T20:33:41.523Z,1.23
2022-10-11T20:36:09.314Z,1.35
2022-10-11T20:38:36.807Z,1.75
2022-10-11T20:41:10.706Z,1.60
2022-10-11T20:43:37.869Z,1.58
2022-10-11T20:46:09.517Z,1.65
2022-10-11T20:48:36.741Z,1.60
2022-10-11T20:51:03.863Z,1.45
2022-10-11T20:53:30.778Z,1.20
2022-10-11T20:55:57.657Z,1.30
2022-10-11T20:58:24.511Z,1.30
2022-10-11T21:00:51.475Z,1.50
2022-10-11T21:03:18.375Z,1.17
2022-10-11T21:05:45.161Z,0.98
2022-10-11T21:08:11.982Z,1.73
2022-10-11T21:10:38.949Z,1.30
2022-10-11T21:13:05.677Z,1.20
2022-10-11T21:15:32.431Z,1.27
2022-10-11T21:17:59.192Z,1.30
2022-10-11T21:20:25.914Z,1.05
2022-10-11T21:22:52.675Z,1.23
2022-10-11T21:25:19.587Z,1.25
2022-10-11T21:27:46.235Z,1.38
2022-10-11T21:30:12.951Z,1.38
2022-10-11T21:32:39.609Z,1.10
2022-10-11T21:35:07.191Z,1.10
2022-10-11T21:37:34.040Z,1.20
2022-10-11T21:40:00.979Z,1.20
2022-10-11T21:42:29.641Z,1.27
2022-10-11T21:44:56.479Z,0.90
2022-10-11T21:47:23.274Z,1.38
2022-10-11T21:49:50.347Z,1.40
2022-10-11T21:52:17.132Z,1.10
2022-10-11T21:54:43.920Z,1.10
2022-10-11T21:57:11.364Z,1.05
2022-10-11T21:59:38.069Z,0.80
2022-10-11T22:02:05.155Z,1.00
2022-10-11T22:04:32.162Z,1.35
2022-10-11T22:06:58.998Z,1.13
2022-10-11T22:09:27.702Z,1.20
2022-10-11T22:11:54.573Z,1.33
2022-10-11T22:14:21.349Z,1.08
2022-10-11T22:16:48.091Z,1.33
2022-10-11T22:19:14.922Z,1.08
2022-10-11T22:21:45.071Z,0.85
2022-10-11T22:24:12.150Z,1.08
2022-10-11T22:26:38.808Z,1.35
2022-10-11T22:29:06.191Z,1.00
2022-10-11T22:31:34.268Z,1.20
2022-10-11T22:34:01.108Z,1.00
2022-10-11T22:36:28.825Z,1.10
2022-10-11T22:38:55.537Z,1.20
2022-10-11T22:41:22.378Z,1.38
2022-10-11T22:43:49.138Z,0.95
2022-10-11T22:46:15.925Z,0.98
2022-10-11T22:48:42.575Z,1.13
2022-10-11T22:51:09.760Z,1.00
2022-10-11T22:53:36.556Z,1.17
2022-10-11T22:56:03.640Z,0.90
2022-10-11T22:58:30.295Z,0.82
2022-10-11T23:00:57.058Z,0.93
2022-10-11T23:03:24.055Z,0.73
2022-10-11T23:05:57.262Z,1.10
2022-10-11T23:08:24.181Z,0.90
2022-10-11T23:10:50.885Z,0.90
2022-10-11T23:13:17.587Z,0.70
2022-10-11T23:15:44.349Z,1.00
2022-10-11T23:18:11.388Z,0.90
2022-10-11T23:20:38.282Z,0.80
2022-10-11T23:23:05.655Z,0.80
2022-10-11T23:25:32.429Z,0.77
2022-10-11T23:28:02.403Z,0.80
2022-10-11T23:30:29.452Z,1.00
2022-10-11T23:32:56.175Z,1.10
2022-10-11T23:35:22.891Z,1.40
2022-10-11T23:37:49.560Z,0.82
2022-10-11T23:40:16.314Z,0.90
2022-10-11T23:42:43.226Z,0.90
2022-10-11T23:45:10.338Z,0.70
2022-10-11T23:47:37.477Z,0.75
2022-10-11T23:50:04.839Z,0.93
2022-10-11T23:52:31.551Z,1.13
2022-10-11T23:54:58.275Z,1.00
2022-10-11T23:57:24.982Z,0.73
2022-10-11T23:59:51.908Z,0.80
